sensor_id;sensor_type;location;lat;lon;timestamp;P1;durP1;ratioP1;P2;durP2;ratioP2
5710;SDS011;61291;52.524;13.422;2023-09-19T00:01:38;72.10;;;67.40;;
5710;SDS011;61291;52.524;13.422;2023-09-19T00:04:05;69.73;;;65.23;;
5710;SDS011;61291;52.524;13.422;2023-09-19T00:06:35;69.97;;;65.37;;
5710;SDS011;61291;52.524;13.422;2023-09-19T00:09:01;71.07;;;66.17;;
5710;SDS011;61291;52.524;13.422;2023-09-19T00:11:27;71.60;;;66.40;;
5710;SDS011;61291;52.524;13.422;2023-09-19T00:13:54;74.17;;;68.90;;
5710;SDS011;61291;52.524;13.422;2023-09-19T00:16:19;73.37;;;68.60;;
5710;SDS011;61291;52.524;13.422;2023-09-19T00:18:45;72.67;;;67.77;;
5710;SDS011;61291;52.524;13.422;2023-09-19T00:21:11;70.23;;;65.57;;
5710;SDS011;61291;52.524;13.422;2023-09-19T00:23:37;71.90;;;67.20;;
5710;SDS011;61291;52.524;13.422;2023-09-19T00:26:03;74.07;;;69.07;;
5710;SDS011;61291;52.524;13.422;2023-09-19T00:28:29;68.60;;;63.80;;
5710;SDS011;61291;52.524;13.422;2023-09-19T00:30:55;72.83;;;68.33;;
5710;SDS011;61291;52.524;13.422;2023-09-19T00:33:20;72.10;;;67.40;;
5710;SDS011;61291;52.524;13.422;2023-09-19T00:35:47;73.40;;;68.80;;
5710;SDS011;61291;52.524;13.422;2023-09-19T00:38:13;73.97;;;69.37;;
5710;SDS011;61291;52.524;13.422;2023-09-19T00:40:45;74.20;;;68.93;;
5710;SDS011;61291;52.524;13.422;2023-09-19T00:43:11;77.87;;;72.33;;
5710;SDS011;61291;52.524;13.422;2023-09-19T00:45:36;77.73;;;72.93;;
5710;SDS011;61291;52.524;13.422;2023-09-19T00:48:07;73.43;;;68.73;;
5710;SDS011;61291;52.524;13.422;2023-09-19T00:50:34;73.40;;;68.57;;
5710;SDS011;61291;52.524;13.422;2023-09-19T00:53:00;71.50;;;67.10;;
5710;SDS011;61291;52.524;13.422;2023-09-19T00:55:30;74.43;;;69.77;;
5710;SDS011;61291;52.524;13.422;2023-09-19T00:57:57;75.57;;;70.20;;
5710;SDS011;61291;52.524;13.422;2023-09-19T01:00:23;78.60;;;73.00;;
5710;SDS011;61291;52.524;13.422;2023-09-19T01:02:49;75.90;;;70.40;;
5710;SDS011;61291;52.524;13.422;2023-09-19T01:05:15;74.17;;;69.10;;
5710;SDS011;61291;52.524;13.422;2023-09-19T01:07:41;78.10;;;73.20;;
5710;SDS011;61291;52.524;13.422;2023-09-19T01:10:11;76.67;;;71.70;;
5710;SDS011;61291;52.524;13.422;2023-09-19T01:15:15;73.80;;;68.90;;
5710;SDS011;61291;52.524;13.422;2023-09-19T01:20:41;77.13;;;72.30;;
5710;SDS011;61291;52.524;13.422;2023-09-19T01:26:18;76.80;;;71.73;;
5710;SDS011;61291;52.524;13.422;2023-09-19T01:29:17;77.17;;;71.70;;
5710;SDS011;61291;52.524;13.422;2023-09-19T01:32:09;73.50;;;69.00;;
5710;SDS011;61291;52.524;13.422;2023-09-19T01:34:46;76.17;;;71.63;;
5710;SDS011;61291;52.524;13.422;2023-09-19T01:37:13;75.37;;;69.43;;
5710;SDS011;61291;52.524;13.422;2023-09-19T01:39:39;75.27;;;70.17;;
5710;SDS011;61291;52.524;13.422;2023-09-19T01:42:09;77.80;;;72.90;;
5710;SDS011;61291;52.524;13.422;2023-09-19T01:44:53;75.77;;;70.97;;
5710;SDS011;61291;52.524;13.422;2023-09-19T01:47:26;78.43;;;73.70;;
5710;SDS011;61291;52.524;13.422;2023-09-19T01:50:06;73.47;;;68.57;;
5710;SDS011;61291;52.524;13.422;2023-09-19T01:52:46;75.60;;;70.80;;
5710;SDS011;61291;52.524;13.422;2023-09-19T01:55:16;79.83;;;74.23;;
5710;SDS011;61291;52.524;13.422;2023-09-19T01:58:01;75.90;;;71.10;;
5710;SDS011;61291;52.524;13.422;2023-09-19T02:00:32;76.43;;;71.63;;
5710;SDS011;61291;52.524;13.422;2023-09-19T02:03:00;84.70;;;79.30;;
5710;SDS011;61291;52.524;13.422;2023-09-19T02:05:27;82.90;;;77.60;;
5710;SDS011;61291;52.524;13.422;2023-09-19T02:07:53;83.67;;;78.07;;
5710;SDS011;61291;52.524;13.422;2023-09-19T02:10:19;84.27;;;78.30;;
5710;SDS011;61291;52.524;13.422;2023-09-19T02:12:44;84.00;;;78.80;;
5710;SDS011;61291;52.524;13.422;2023-09-19T02:15:10;85.57;;;79.87;;
5710;SDS011;61291;52.524;13.422;2023-09-19T02:17:36;86.90;;;81.50;;
5710;SDS011;61291;52.524;13.422;2023-09-19T02:20:01;83.17;;;78.27;;
5710;SDS011;61291;52.524;13.422;2023-09-19T02:22:28;80.70;;;75.53;;
5710;SDS011;61291;52.524;13.422;2023-09-19T02:24:54;81.63;;;76.67;;
5710;SDS011;61291;52.524;13.422;2023-09-19T02:27:23;82.13;;;76.83;;
5710;SDS011;61291;52.524;13.422;2023-09-19T02:29:48;82.70;;;77.20;;
5710;SDS011;61291;52.524;13.422;2023-09-19T02:32:14;85.80;;;80.50;;
5710;SDS011;61291;52.524;13.422;2023-09-19T02:34:40;82.70;;;77.47;;
5710;SDS011;61291;52.524;13.422;2023-09-19T02:37:06;88.87;;;83.60;;
5710;SDS011;61291;52.524;13.422;2023-09-19T02:39:33;81.63;;;76.43;;
5710;SDS011;61291;52.524;13.422;2023-09-19T02:41:59;85.17;;;79.87;;
5710;SDS011;61291;52.524;13.422;2023-09-19T02:44:24;89.53;;;84.03;;
5710;SDS011;61291;52.524;13.422;2023-09-19T02:46:50;85.00;;;79.53;;
5710;SDS011;61291;52.524;13.422;2023-09-19T02:49:16;89.50;;;84.07;;
5710;SDS011;61291;52.524;13.422;2023-09-19T02:51:43;84.23;;;78.90;;
5710;SDS011;61291;52.524;13.422;2023-09-19T02:54:08;84.93;;;79.83;;
5710;SDS011;61291;52.524;13.422;2023-09-19T02:56:34;83.87;;;78.87;;
5710;SDS011;61291;52.524;13.422;2023-09-19T02:59:01;70.60;;;65.70;;
5710;SDS011;61291;52.524;13.422;2023-09-19T03:01:26;86.07;;;80.50;;
5710;SDS011;61291;52.524;13.422;2023-09-19T03:03:53;85.27;;;80.10;;
5710;SDS011;61291;52.524;13.422;2023-09-19T03:06:19;83.13;;;78.20;;
5710;SDS011;61291;52.524;13.422;2023-09-19T03:08:45;81.97;;;76.20;;
5710;SDS011;61291;52.524;13.422;2023-09-19T03:11:11;81.20;;;76.30;;
5710;SDS011;61291;52.524;13.422;2023-09-19T03:13:39;86.40;;;81.23;;
5710;SDS011;61291;52.524;13.422;2023-09-19T03:16:06;80.80;;;76.20;;
5710;SDS011;61291;52.524;13.422;2023-09-19T03:18:34;84.17;;;78.40;;
5710;SDS011;61291;52.524;13.422;2023-09-19T03:20:59;84.00;;;79.10;;
5710;SDS011;61291;52.524;13.422;2023-09-19T03:23:25;81.07;;;76.00;;
5710;SDS011;61291;52.524;13.422;2023-09-19T03:25:51;85.10;;;79.90;;
5710;SDS011;61291;52.524;13.422;2023-09-19T03:28:17;83.03;;;78.00;;
5710;SDS011;61291;52.524;13.422;2023-09-19T03:30:43;85.40;;;80.37;;
5710;SDS011;61291;52.524;13.422;2023-09-19T03:33:09;87.27;;;82.13;;
5710;SDS011;61291;52.524;13.422;2023-09-19T03:35:37;85.43;;;80.47;;
5710;SDS011;61291;52.524;13.422;2023-09-19T03:38:03;92.50;;;87.20;;
5710;SDS011;61291;52.524;13.422;2023-09-19T03:40:29;80.10;;;75.30;;
5710;SDS011;61291;52.524;13.422;2023-09-19T03:42:55;94.97;;;89.23;;
5710;SDS011;61291;52.524;13.422;2023-09-19T03:45:20;93.73;;;88.13;;
5710;SDS011;61291;52.524;13.422;2023-09-19T03:47:46;92.00;;;86.40;;
5710;SDS011;61291;52.524;13.422;2023-09-19T03:50:14;86.53;;;81.33;;
5710;SDS011;61291;52.524;13.422;2023-09-19T03:52:42;89.43;;;84.10;;
5710;SDS011;61291;52.524;13.422;2023-09-19T03:55:10;82.80;;;78.00;;
5710;SDS011;61291;52.524;13.422;2023-09-19T03:57:36;83.70;;;78.80;;
5710;SDS011;61291;52.524;13.422;2023-09-19T04:00:02;81.53;;;76.53;;
5710;SDS011;61291;52.524;13.422;2023-09-19T04:02:36;82.10;;;77.10;;
5710;SDS011;61291;52.524;13.422;2023-09-19T04:05:02;81.13;;;75.93;;
5710;SDS011;61291;52.524;13.422;2023-09-19T04:07:28;84.37;;;79.23;;
5710;SDS011;61291;52.524;13.422;2023-09-19T04:09:54;83.27;;;78.13;;
5710;SDS011;61291;52.524;13.422;2023-09-19T04:12:20;78.93;;;74.03;;
5710;SDS011;61291;52.524;13.422;2023-09-19T04:14:45;86.97;;;81.80;;
5710;SDS011;61291;52.524;13.422;2023-09-19T04:17:11;84.17;;;78.97;;
5710;SDS011;61291;52.524;13.422;2023-09-19T04:19:36;77.60;;;73.00;;
5710;SDS011;61291;52.524;13.422;2023-09-19T04:22:02;82.80;;;77.63;;
5710;SDS011;61291;52.524;13.422;2023-09-19T04:24:29;77.57;;;72.50;;
5710;SDS011;61291;52.524;13.422;2023-09-19T04:26:54;80.17;;;74.77;;
5710;SDS011;61291;52.524;13.422;2023-09-19T04:29:19;83.00;;;77.53;;
5710;SDS011;61291;52.524;13.422;2023-09-19T04:31:45;80.53;;;75.33;;
5710;SDS011;61291;52.524;13.422;2023-09-19T04:34:11;79.97;;;74.57;;
5710;SDS011;61291;52.524;13.422;2023-09-19T04:36:41;82.00;;;76.43;;
5710;SDS011;61291;52.524;13.422;2023-09-19T04:39:06;80.97;;;75.63;;
5710;SDS011;61291;52.524;13.422;2023-09-19T04:41:32;86.67;;;81.03;;
5710;SDS011;61291;52.524;13.422;2023-09-19T04:43:58;79.93;;;74.03;;
5710;SDS011;61291;52.524;13.422;2023-09-19T04:46:24;76.65;;;71.90;;
5710;SDS011;61291;52.524;13.422;2023-09-19T04:48:50;73.93;;;68.80;;
5710;SDS011;61291;52.524;13.422;2023-09-19T04:51:15;74.10;;;68.60;;
5710;SDS011;61291;52.524;13.422;2023-09-19T04:53:41;77.27;;;72.43;;
5710;SDS011;61291;52.524;13.422;2023-09-19T04:56:07;73.77;;;68.90;;
5710;SDS011;61291;52.524;13.422;2023-09-19T04:58:33;72.97;;;68.37;;
5710;SDS011;61291;52.524;13.422;2023-09-19T05:00:58;80.63;;;75.70;;
5710;SDS011;61291;52.524;13.422;2023-09-19T05:03:24;78.57;;;73.67;;
5710;SDS011;61291;52.524;13.422;2023-09-19T05:05:50;80.03;;;74.90;;
5710;SDS011;61291;52.524;13.422;2023-09-19T05:08:15;73.60;;;69.03;;
5710;SDS011;61291;52.524;13.422;2023-09-19T05:10:41;74.60;;;69.30;;
5710;SDS011;61291;52.524;13.422;2023-09-19T05:13:06;58.50;;;54.47;;
5710;SDS011;61291;52.524;13.422;2023-09-19T05:15:35;71.97;;;66.53;;
5710;SDS011;61291;52.524;13.422;2023-09-19T05:18:00;67.67;;;63.03;;
5710;SDS011;61291;52.524;13.422;2023-09-19T05:20:26;69.83;;;64.90;;
5710;SDS011;61291;52.524;13.422;2023-09-19T05:22:59;67.40;;;62.90;;
5710;SDS011;61291;52.524;13.422;2023-09-19T05:25:31;70.57;;;65.87;;
5710;SDS011;61291;52.524;13.422;2023-09-19T05:28:00;73.20;;;67.73;;
5710;SDS011;61291;52.524;13.422;2023-09-19T05:30:28;72.57;;;67.60;;
5710;SDS011;61291;52.524;13.422;2023-09-19T05:32:54;71.23;;;65.60;;
5710;SDS011;61291;52.524;13.422;2023-09-19T05:35:21;73.57;;;68.40;;
5710;SDS011;61291;52.524;13.422;2023-09-19T05:37:47;71.83;;;66.53;;
5710;SDS011;61291;52.524;13.422;2023-09-19T05:40:15;70.17;;;65.57;;
5710;SDS011;61291;52.524;13.422;2023-09-19T05:42:41;63.35;;;58.97;;
5710;SDS011;61291;52.524;13.422;2023-09-19T05:45:08;78.67;;;72.37;;
5710;SDS011;61291;52.524;13.422;2023-09-19T05:47:37;77.33;;;72.37;;
5710;SDS011;61291;52.524;13.422;2023-09-19T05:50:05;80.03;;;74.87;;
5710;SDS011;61291;52.524;13.422;2023-09-19T05:52:32;74.47;;;69.63;;
5710;SDS011;61291;52.524;13.422;2023-09-19T05:54:58;81.43;;;75.90;;
5710;SDS011;61291;52.524;13.422;2023-09-19T05:57:23;76.13;;;70.60;;
5710;SDS011;61291;52.524;13.422;2023-09-19T05:59:49;80.33;;;73.50;;
5710;SDS011;61291;52.524;13.422;2023-09-19T06:02:15;75.50;;;69.87;;
5710;SDS011;61291;52.524;13.422;2023-09-19T06:04:41;72.97;;;68.20;;
5710;SDS011;61291;52.524;13.422;2023-09-19T06:07:06;76.03;;;70.47;;
5710;SDS011;61291;52.524;13.422;2023-09-19T06:09:32;75.80;;;70.83;;
5710;SDS011;61291;52.524;13.422;2023-09-19T06:11:58;71.47;;;66.97;;
5710;SDS011;61291;52.524;13.422;2023-09-19T06:14:28;69.70;;;64.97;;
5710;SDS011;61291;52.524;13.422;2023-09-19T06:16:53;70.80;;;66.20;;
5710;SDS011;61291;52.524;13.422;2023-09-19T06:19:19;75.83;;;70.03;;
5710;SDS011;61291;52.524;13.422;2023-09-19T06:21:47;73.30;;;68.53;;
5710;SDS011;61291;52.524;13.422;2023-09-19T06:24:13;65.63;;;61.40;;
5710;SDS011;61291;52.524;13.422;2023-09-19T06:26:39;72.00;;;67.20;;
5710;SDS011;61291;52.524;13.422;2023-09-19T06:29:05;63.90;;;59.70;;
5710;SDS011;61291;52.524;13.422;2023-09-19T06:31:32;63.63;;;59.10;;
5710;SDS011;61291;52.524;13.422;2023-09-19T06:33:58;67.20;;;62.80;;
5710;SDS011;61291;52.524;13.422;2023-09-19T06:36:23;67.53;;;63.13;;
5710;SDS011;61291;52.524;13.422;2023-09-19T06:38:49;72.30;;;66.43;;
5710;SDS011;61291;52.524;13.422;2023-09-19T06:41:16;71.00;;;65.70;;
5710;SDS011;61291;52.524;13.422;2023-09-19T06:43:42;65.63;;;61.17;;
5710;SDS011;61291;52.524;13.422;2023-09-19T06:46:08;71.80;;;66.90;;
5710;SDS011;61291;52.524;13.422;2023-09-19T06:48:34;72.70;;;67.80;;
5710;SDS011;61291;52.524;13.422;2023-09-19T06:51:00;74.13;;;68.97;;
5710;SDS011;61291;52.524;13.422;2023-09-19T06:53:27;75.63;;;70.77;;
5710;SDS011;61291;52.524;13.422;2023-09-19T06:55:56;72.80;;;68.07;;
5710;SDS011;61291;52.524;13.422;2023-09-19T06:58:22;71.57;;;66.90;;
5710;SDS011;61291;52.524;13.422;2023-09-19T07:00:48;69.17;;;64.43;;
5710;SDS011;61291;52.524;13.422;2023-09-19T07:03:15;67.37;;;62.47;;
5710;SDS011;61291;52.524;13.422;2023-09-19T07:05:43;66.23;;;60.60;;
5710;SDS011;61291;52.524;13.422;2023-09-19T07:08:09;67.33;;;62.87;;
5710;SDS011;61291;52.524;13.422;2023-09-19T07:10:37;66.17;;;61.73;;
5710;SDS011;61291;52.524;13.422;2023-09-19T07:13:05;64.40;;;59.80;;
5710;SDS011;61291;52.524;13.422;2023-09-19T07:15:36;65.87;;;60.63;;
5710;SDS011;61291;52.524;13.422;2023-09-19T07:18:06;61.80;;;57.30;;
5710;SDS011;61291;52.524;13.422;2023-09-19T07:20:35;61.37;;;57.33;;
5710;SDS011;61291;52.524;13.422;2023-09-19T07:23:02;69.47;;;65.03;;
5710;SDS011;61291;52.524;13.422;2023-09-19T07:25:28;64.60;;;60.20;;
5710;SDS011;61291;52.524;13.422;2023-09-19T07:27:56;66.27;;;61.03;;
5710;SDS011;61291;52.524;13.422;2023-09-19T07:30:26;72.57;;;67.50;;
5710;SDS011;61291;52.524;13.422;2023-09-19T07:32:53;71.93;;;67.33;;
5710;SDS011;61291;52.524;13.422;2023-09-19T07:35:18;66.17;;;61.57;;
5710;SDS011;61291;52.524;13.422;2023-09-19T07:37:45;64.77;;;60.57;;
5710;SDS011;61291;52.524;13.422;2023-09-19T07:40:14;69.20;;;63.97;;
5710;SDS011;61291;52.524;13.422;2023-09-19T07:42:40;67.97;;;62.77;;
5710;SDS011;61291;52.524;13.422;2023-09-19T07:45:07;57.55;;;53.25;;
5710;SDS011;61291;52.524;13.422;2023-09-19T07:47:33;70.10;;;65.13;;
5710;SDS011;61291;52.524;13.422;2023-09-19T07:49:59;71.03;;;66.30;;
5710;SDS011;61291;52.524;13.422;2023-09-19T07:52:27;69.27;;;64.37;;
5710;SDS011;61291;52.524;13.422;2023-09-19T07:54:53;67.67;;;63.17;;
5710;SDS011;61291;52.524;13.422;2023-09-19T07:57:19;65.23;;;60.80;;
5710;SDS011;61291;52.524;13.422;2023-09-19T07:59:45;69.57;;;64.13;;
5710;SDS011;61291;52.524;13.422;2023-09-19T08:02:10;62.50;;;58.30;;
5710;SDS011;61291;52.524;13.422;2023-09-19T08:04:41;71.67;;;65.63;;
5710;SDS011;61291;52.524;13.422;2023-09-19T08:07:07;63.50;;;58.43;;
5710;SDS011;61291;52.524;13.422;2023-09-19T08:09:36;65.03;;;60.00;;
5710;SDS011;61291;52.524;13.422;2023-09-19T08:12:03;68.73;;;63.40;;
5710;SDS011;61291;52.524;13.422;2023-09-19T08:14:29;64.57;;;59.33;;
5710;SDS011;61291;52.524;13.422;2023-09-19T08:16:58;68.60;;;63.23;;
5710;SDS011;61291;52.524;13.422;2023-09-19T08:19:24;64.30;;;59.87;;
5710;SDS011;61291;52.524;13.422;2023-09-19T08:21:54;71.43;;;66.10;;
5710;SDS011;61291;52.524;13.422;2023-09-19T08:24:29;68.27;;;63.53;;
5710;SDS011;61291;52.524;13.422;2023-09-19T08:26:55;68.53;;;63.13;;
5710;SDS011;61291;52.524;13.422;2023-09-19T08:29:22;72.07;;;66.30;;
5710;SDS011;61291;52.524;13.422;2023-09-19T08:31:59;64.33;;;59.67;;
5710;SDS011;61291;52.524;13.422;2023-09-19T08:34:24;62.63;;;58.43;;
5710;SDS011;61291;52.524;13.422;2023-09-19T08:36:54;66.27;;;61.00;;
5710;SDS011;61291;52.524;13.422;2023-09-19T08:39:23;68.40;;;63.03;;
5710;SDS011;61291;52.524;13.422;2023-09-19T08:41:49;68.87;;;63.70;;
5710;SDS011;61291;52.524;13.422;2023-09-19T08:44:15;70.73;;;65.23;;
5710;SDS011;61291;52.524;13.422;2023-09-19T08:46:41;65.87;;;60.67;;
5710;SDS011;61291;52.524;13.422;2023-09-19T08:49:09;65.43;;;60.97;;
5710;SDS011;61291;52.524;13.422;2023-09-19T08:51:43;75.53;;;70.30;;
5710;SDS011;61291;52.524;13.422;2023-09-19T08:56:51;67.47;;;62.97;;
5710;SDS011;61291;52.524;13.422;2023-09-19T08:59:21;68.80;;;64.10;;
5710;SDS011;61291;52.524;13.422;2023-09-19T09:01:51;73.60;;;68.60;;
5710;SDS011;61291;52.524;13.422;2023-09-19T09:04:19;70.97;;;66.17;;
5710;SDS011;61291;52.524;13.422;2023-09-19T09:06:45;69.97;;;65.10;;
5710;SDS011;61291;52.524;13.422;2023-09-19T09:09:14;73.77;;;68.27;;
5710;SDS011;61291;52.524;13.422;2023-09-19T09:11:40;62.73;;;58.17;;
5710;SDS011;61291;52.524;13.422;2023-09-19T09:14:06;67.03;;;62.10;;
5710;SDS011;61291;52.524;13.422;2023-09-19T09:16:32;72.30;;;67.00;;
5710;SDS011;61291;52.524;13.422;2023-09-19T09:18:58;69.87;;;65.13;;
5710;SDS011;61291;52.524;13.422;2023-09-19T09:21:24;71.13;;;66.13;;
5710;SDS011;61291;52.524;13.422;2023-09-19T09:23:51;71.43;;;66.43;;
5710;SDS011;61291;52.524;13.422;2023-09-19T09:26:17;73.37;;;67.90;;
5710;SDS011;61291;52.524;13.422;2023-09-19T09:28:49;68.80;;;62.87;;
5710;SDS011;61291;52.524;13.422;2023-09-19T09:31:24;68.90;;;64.27;;
5710;SDS011;61291;52.524;13.422;2023-09-19T09:33:53;72.63;;;67.23;;
5710;SDS011;61291;52.524;13.422;2023-09-19T09:36:32;81.83;;;74.53;;
5710;SDS011;61291;52.524;13.422;2023-09-19T09:39:02;80.77;;;75.57;;
5710;SDS011;61291;52.524;13.422;2023-09-19T09:41:40;68.33;;;63.13;;
5710;SDS011;61291;52.524;13.422;2023-09-19T09:44:14;69.17;;;64.17;;
5710;SDS011;61291;52.524;13.422;2023-09-19T09:46:44;60.17;;;55.35;;
5710;SDS011;61291;52.524;13.422;2023-09-19T09:49:23;68.30;;;63.27;;
5710;SDS011;61291;52.524;13.422;2023-09-19T09:54:27;75.03;;;69.10;;
5710;SDS011;61291;52.524;13.422;2023-09-19T09:57:07;69.53;;;64.77;;
5710;SDS011;61291;52.524;13.422;2023-09-19T09:59:43;66.83;;;61.20;;
5710;SDS011;61291;52.524;13.422;2023-09-19T10:02:11;69.07;;;63.73;;
5710;SDS011;61291;52.524;13.422;2023-09-19T10:04:38;72.57;;;66.73;;
5710;SDS011;61291;52.524;13.422;2023-09-19T10:07:29;70.07;;;65.07;;
5710;SDS011;61291;52.524;13.422;2023-09-19T10:10:03;70.37;;;64.87;;
5710;SDS011;61291;52.524;13.422;2023-09-19T10:12:36;65.93;;;60.87;;
5710;SDS011;61291;52.524;13.422;2023-09-19T10:15:07;69.67;;;64.50;;
5710;SDS011;61291;52.524;13.422;2023-09-19T10:17:36;69.33;;;64.60;;
5710;SDS011;61291;52.524;13.422;2023-09-19T10:20:01;63.50;;;58.80;;
5710;SDS011;61291;52.524;13.422;2023-09-19T10:22:38;63.57;;;58.57;;
5710;SDS011;61291;52.524;13.422;2023-09-19T10:25:07;73.53;;;68.50;;
5710;SDS011;61291;52.524;13.422;2023-09-19T10:27:33;61.00;;;56.70;;
5710;SDS011;61291;52.524;13.422;2023-09-19T10:30:03;68.87;;;63.27;;
5710;SDS011;61291;52.524;13.422;2023-09-19T10:32:33;71.10;;;66.00;;
5710;SDS011;61291;52.524;13.422;2023-09-19T10:35:00;65.20;;;60.80;;
5710;SDS011;61291;52.524;13.422;2023-09-19T10:37:27;70.70;;;65.63;;
5710;SDS011;61291;52.524;13.422;2023-09-19T10:39:55;73.60;;;67.73;;
5710;SDS011;61291;52.524;13.422;2023-09-19T10:42:21;66.90;;;62.10;;
5710;SDS011;61291;52.524;13.422;2023-09-19T10:44:52;73.10;;;68.10;;
5710;SDS011;61291;52.524;13.422;2023-09-19T10:47:19;74.90;;;69.53;;
5710;SDS011;61291;52.524;13.422;2023-09-19T10:49:45;78.90;;;73.43;;
5710;SDS011;61291;52.524;13.422;2023-09-19T10:52:11;68.03;;;63.03;;
5710;SDS011;61291;52.524;13.422;2023-09-19T10:54:45;74.60;;;69.40;;
5710;SDS011;61291;52.524;13.422;2023-09-19T10:57:22;74.40;;;68.50;;
5710;SDS011;61291;52.524;13.422;2023-09-19T11:00:04;69.70;;;64.43;;
5710;SDS011;61291;52.524;13.422;2023-09-19T11:11:39;69.07;;;64.13;;
5710;SDS011;61291;52.524;13.422;2023-09-19T11:30:40;73.37;;;67.97;;
5710;SDS011;61291;52.524;13.422;2023-09-19T11:43:51;70.47;;;65.37;;
5710;SDS011;61291;52.524;13.422;2023-09-19T11:46:19;72.27;;;66.97;;
5710;SDS011;61291;52.524;13.422;2023-09-19T11:48:50;76.53;;;70.77;;
5710;SDS011;61291;52.524;13.422;2023-09-19T11:51:23;80.30;;;73.90;;
5710;SDS011;61291;52.524;13.422;2023-09-19T11:53:52;71.37;;;66.60;;
5710;SDS011;61291;52.524;13.422;2023-09-19T11:56:20;67.37;;;62.60;;
5710;SDS011;61291;52.524;13.422;2023-09-19T11:58:51;72.53;;;67.23;;
5710;SDS011;61291;52.524;13.422;2023-09-19T12:01:22;72.60;;;67.60;;
5710;SDS011;61291;52.524;13.422;2023-09-19T12:03:56;74.20;;;68.00;;
5710;SDS011;61291;52.524;13.422;2023-09-19T12:06:23;65.47;;;60.63;;
5710;SDS011;61291;52.524;13.422;2023-09-19T12:08:49;74.53;;;68.73;;
5710;SDS011;61291;52.524;13.422;2023-09-19T12:11:16;74.97;;;69.83;;
5710;SDS011;61291;52.524;13.422;2023-09-19T12:13:45;71.60;;;66.63;;
5710;SDS011;61291;52.524;13.422;2023-09-19T12:16:14;68.60;;;63.37;;
5710;SDS011;61291;52.524;13.422;2023-09-19T12:18:40;69.87;;;64.33;;
5710;SDS011;61291;52.524;13.422;2023-09-19T12:21:20;70.67;;;65.10;;
5710;SDS011;61291;52.524;13.422;2023-09-19T12:24:05;68.53;;;63.53;;
5710;SDS011;61291;52.524;13.422;2023-09-19T12:26:42;62.50;;;58.10;;
5710;SDS011;61291;52.524;13.422;2023-09-19T12:29:19;69.50;;;64.03;;
5710;SDS011;61291;52.524;13.422;2023-09-19T12:31:55;65.17;;;59.77;;
5710;SDS011;61291;52.524;13.422;2023-09-19T12:34:29;71.40;;;65.77;;
5710;SDS011;61291;52.524;13.422;2023-09-19T12:37:14;69.43;;;64.73;;
5710;SDS011;61291;52.524;13.422;2023-09-19T12:39:45;65.77;;;61.10;;
5710;SDS011;61291;52.524;13.422;2023-09-19T12:42:14;71.73;;;66.23;;
5710;SDS011;61291;52.524;13.422;2023-09-19T12:44:41;64.17;;;59.97;;
5710;SDS011;61291;52.524;13.422;2023-09-19T12:47:09;70.00;;;64.40;;
5710;SDS011;61291;52.524;13.422;2023-09-19T12:49:35;67.07;;;62.37;;
5710;SDS011;61291;52.524;13.422;2023-09-19T12:52:01;65.00;;;60.63;;
5710;SDS011;61291;52.524;13.422;2023-09-19T12:54:39;63.70;;;59.50;;
5710;SDS011;61291;52.524;13.422;2023-09-19T12:57:06;73.87;;;69.20;;
5710;SDS011;61291;52.524;13.422;2023-09-19T12:59:31;67.67;;;62.90;;
5710;SDS011;61291;52.524;13.422;2023-09-19T13:02:03;71.80;;;66.60;;
5710;SDS011;61291;52.524;13.422;2023-09-19T13:04:32;81.87;;;76.10;;
5710;SDS011;61291;52.524;13.422;2023-09-19T13:06:59;72.93;;;67.30;;
5710;SDS011;61291;52.524;13.422;2023-09-19T13:09:26;69.18;;;64.82;;
5710;SDS011;61291;52.524;13.422;2023-09-19T13:12:04;66.13;;;61.63;;
5710;SDS011;61291;52.524;13.422;2023-09-19T13:15:07;63.70;;;58.50;;
5710;SDS011;61291;52.524;13.422;2023-09-19T13:17:44;64.53;;;60.27;;
5710;SDS011;61291;52.524;13.422;2023-09-19T13:20:26;70.03;;;64.83;;
5710;SDS011;61291;52.524;13.422;2023-09-19T13:22:52;66.60;;;62.23;;
5710;SDS011;61291;52.524;13.422;2023-09-19T13:25:20;68.20;;;63.33;;
5710;SDS011;61291;52.524;13.422;2023-09-19T13:27:47;68.13;;;63.50;;
5710;SDS011;61291;52.524;13.422;2023-09-19T13:30:19;62.30;;;57.57;;
5710;SDS011;61291;52.524;13.422;2023-09-19T13:32:46;70.23;;;65.73;;
5710;SDS011;61291;52.524;13.422;2023-09-19T13:35:12;65.40;;;60.87;;
5710;SDS011;61291;52.524;13.422;2023-09-19T13:37:41;64.47;;;60.17;;
5710;SDS011;61291;52.524;13.422;2023-09-19T13:40:11;68.80;;;64.23;;
5710;SDS011;61291;52.524;13.422;2023-09-19T13:42:39;69.53;;;64.43;;
5710;SDS011;61291;52.524;13.422;2023-09-19T13:45:05;66.53;;;62.13;;
5710;SDS011;61291;52.524;13.422;2023-09-19T13:47:31;68.47;;;63.93;;
5710;SDS011;61291;52.524;13.422;2023-09-19T13:49:57;65.13;;;60.30;;
5710;SDS011;61291;52.524;13.422;2023-09-19T13:52:23;73.30;;;68.70;;
5710;SDS011;61291;52.524;13.422;2023-09-19T13:54:52;66.20;;;61.30;;
5710;SDS011;61291;52.524;13.422;2023-09-19T13:57:18;65.20;;;60.80;;
5710;SDS011;61291;52.524;13.422;2023-09-19T13:59:44;67.90;;;63.60;;
5710;SDS011;61291;52.524;13.422;2023-09-19T14:02:09;63.80;;;59.60;;
5710;SDS011;61291;52.524;13.422;2023-09-19T14:04:35;60.10;;;56.10;;
5710;SDS011;61291;52.524;13.422;2023-09-19T14:07:01;62.43;;;57.97;;
5710;SDS011;61291;52.524;13.422;2023-09-19T14:09:26;64.20;;;60.00;;
5710;SDS011;61291;52.524;13.422;2023-09-19T14:11:52;66.87;;;62.43;;
5710;SDS011;61291;52.524;13.422;2023-09-19T14:14:20;63.00;;;58.27;;
5710;SDS011;61291;52.524;13.422;2023-09-19T14:16:47;63.40;;;59.17;;
5710;SDS011;61291;52.524;13.422;2023-09-19T14:19:13;62.47;;;58.10;;
5710;SDS011;61291;52.524;13.422;2023-09-19T14:21:42;63.30;;;59.13;;
5710;SDS011;61291;52.524;13.422;2023-09-19T14:24:07;61.93;;;56.90;;
5710;SDS011;61291;52.524;13.422;2023-09-19T14:26:35;64.13;;;59.70;;
5710;SDS011;61291;52.524;13.422;2023-09-19T14:29:00;65.67;;;61.07;;
5710;SDS011;61291;52.524;13.422;2023-09-19T14:31:26;67.07;;;62.60;;
5710;SDS011;61291;52.524;13.422;2023-09-19T14:33:53;55.33;;;50.83;;
5710;SDS011;61291;52.524;13.422;2023-09-19T14:36:20;66.33;;;61.77;;
5710;SDS011;61291;52.524;13.422;2023-09-19T14:38:46;66.27;;;61.67;;
5710;SDS011;61291;52.524;13.422;2023-09-19T14:41:12;71.43;;;66.60;;
5710;SDS011;61291;52.524;13.422;2023-09-19T14:43:38;67.53;;;62.70;;
5710;SDS011;61291;52.524;13.422;2023-09-19T14:46:04;66.23;;;61.20;;
5710;SDS011;61291;52.524;13.422;2023-09-19T14:48:32;69.23;;;64.70;;
5710;SDS011;61291;52.524;13.422;2023-09-19T14:51:05;67.20;;;62.20;;
5710;SDS011;61291;52.524;13.422;2023-09-19T14:53:33;63.00;;;58.40;;
5710;SDS011;61291;52.524;13.422;2023-09-19T14:56:00;66.37;;;61.57;;
5710;SDS011;61291;52.524;13.422;2023-09-19T14:58:28;70.97;;;65.93;;
5710;SDS011;61291;52.524;13.422;2023-09-19T15:01:01;64.13;;;59.30;;
5710;SDS011;61291;52.524;13.422;2023-09-19T15:03:30;64.70;;;60.10;;
5710;SDS011;61291;52.524;13.422;2023-09-19T15:06:00;60.57;;;56.23;;
5710;SDS011;61291;52.524;13.422;2023-09-19T15:08:26;66.47;;;61.47;;
5710;SDS011;61291;52.524;13.422;2023-09-19T15:10:52;65.23;;;60.47;;
5710;SDS011;61291;52.524;13.422;2023-09-19T15:13:18;65.80;;;61.20;;
5710;SDS011;61291;52.524;13.422;2023-09-19T15:15:45;66.67;;;62.00;;
5710;SDS011;61291;52.524;13.422;2023-09-19T15:18:13;66.87;;;62.17;;